< < Back
Terminal Aerodrome Forecast


Current Version              Previous Versions:   1  2  3  4  5  6  7  8  9  

Terminal Aerodrome Forecast

595
FTUS44 KMRX 012320
TAFCHA
TAF
KCHA 012320Z 0200/0224 05005KT P6SM SCT050
     FM020300 00000KT P6SM SKC
     FM021400 03004KT P6SM SCT050=

Latest METAR

483
SAUS80 KWBC 020800 RRA
MTRCHA
METAR KCHA 020753Z AUTO 00000KT 10SM CLR 22/20 A3011 RMK AO2 SLP186
T02220200


USA.gov is the U.S. government's official web portal to all federal, state and local government web resources and services.